.
WxDataArchive / Data Records for 2012-06-01
2012-05-31 June 2012 2012-06-02

Data Records for Friday, 01 June 2012

Time	Temp	Chill	HIndex	Humid	Dewpt	 Wind 	HiWind	WindDir	Rain 	Barom 
-----	----	-----	------	-----	-----	------	------	-------	-----	----- 
00:00	53.1	53.1	53.1	90	50.2	3	9	90	0.00	29.762 
00:05	52.9	52.9	52.9	90	50.0	4	10	90	0.00	29.762 
00:10	52.8	52.8	52.8	90	49.9	5	12	90	0.00	29.762 
00:15	52.8	52.8	52.8	90	49.9	4	13	90	0.00	29.754 
00:20	52.8	52.8	52.8	90	49.9	3	15	90	0.00	29.754 
00:25	52.6	52.6	52.6	90	49.7	3	7	90	0.00	29.754 
00:30	52.5	52.5	52.5	90	49.7	4	13	90	0.00	29.744 
00:35	52.5	52.5	52.5	91	49.9	3	9	90	0.00	29.744 
00:40	52.3	52.3	52.3	91	49.8	3	10	90	0.00	29.744 
00:45	52.2	52.2	52.2	91	49.7	3	10	90	0.00	29.748 
00:50	52.0	52.0	52.0	90	49.2	6	18	90	0.00	29.748 
00:55	52.0	52.0	52.0	90	49.2	3	13	90	0.00	29.748 
01:00	51.9	51.9	51.9	90	49.1	3	12	90	0.00	29.747 
01:05	51.9	51.9	51.9	89	48.8	6	14	90	0.00	29.747 
01:10	51.9	51.9	51.9	89	48.8	4	11	90	0.00	29.747 
01:15	51.9	51.9	51.9	89	48.8	5	12	90	0.00	29.734 
01:20	51.9	51.9	51.9	90	49.1	3	10	90	0.00	29.734 
01:25	52.0	52.0	52.0	90	49.2	3	13	90	0.00	29.734 
01:30	52.0	52.0	52.0	90	49.2	2	7	68	0.00	29.730 
01:35	52.0	52.0	52.0	90	49.2	4	9	90	0.00	29.730 
01:40	51.9	51.9	51.9	90	49.1	4	10	90	0.00	29.730 
01:45	51.9	51.9	51.9	90	49.1	3	6	90	0.00	29.723 
01:50	51.9	51.9	51.9	90	49.1	3	10	112	0.00	29.723 
01:55	51.9	51.9	51.9	90	49.1	3	10	90	0.00	29.723 
02:00	51.9	51.9	51.9	93	49.9	3	10	90	0.00	29.708 
02:05	51.9	51.9	51.9	90	49.1	3	13	90	0.00	29.708 
02:10	51.9	51.9	51.9	90	49.1	3	9	90	0.00	29.708 
02:15	51.9	51.9	51.9	90	49.1	3	7	90	0.00	29.694 
02:20	51.9	51.9	51.9	90	49.1	3	12	90	0.00	29.694 
02:25	52.0	52.0	52.0	90	49.2	3	7	90	0.00	29.694 
02:30	52.0	52.0	52.0	90	49.2	3	11	112	0.00	29.689 
02:35	52.0	52.0	52.0	90	49.2	3	11	112	0.00	29.689 
02:40	52.0	52.0	52.0	91	49.5	3	7	90	0.00	29.689 
02:45	52.2	52.2	52.2	91	49.7	3	6	90	0.00	29.687 
02:50	52.2	52.2	52.2	91	49.7	2	5	68	0.00	29.687 
02:55	52.2	52.2	52.2	91	49.7	3	10	112	0.00	29.687 
03:00	52.2	52.2	52.2	91	49.7	1	4	90	0.00	29.680 
03:05	52.3	52.3	52.3	91	49.8	2	10	90	0.00	29.680 
03:10	52.3	52.3	52.3	91	49.8	2	5	90	0.00	29.680 
03:15	52.3	52.3	52.3	91	49.8	1	3	90	0.00	29.670 
03:20	52.3	52.3	52.3	91	49.8	1	4	90	0.00	29.670 
03:25	52.3	52.3	52.3	91	49.8	1	4	90	0.00	29.670 
03:30	52.3	52.3	52.3	91	49.8	2	5	90	0.00	29.657 
03:35	52.3	52.3	52.3	91	49.8	1	5	68	0.00	29.657 
03:40	52.3	52.3	52.3	91	49.8	0	2	68	0.00	29.657 
03:45	52.5	52.5	52.5	91	49.9	1	3	68	0.00	29.654 
03:50	52.5	52.5	52.5	91	49.9	0	2	68	0.00	29.654 
03:55	52.5	52.5	52.5	91	49.9	0	1	68	0.00	29.654 
04:00	52.5	52.5	52.5	92	50.2	0	2	68	0.00	29.651 
04:05	52.5	52.5	52.5	92	50.2	0	3	68	0.00	29.651 
04:10	52.5	52.5	52.5	92	50.2	0	0	---	0.01	29.651 
04:15	52.5	52.5	52.5	92	50.2	0	1	68	0.01	29.644 
04:20	52.5	52.5	52.5	92	50.2	0	2	315	0.00	29.644 
04:25	52.3	52.3	52.3	92	50.0	0	2	315	0.01	29.644 
04:30	52.3	52.3	52.3	92	50.0	0	2	315	0.00	29.638 
04:35	52.3	52.3	52.3	93	50.3	0	2	315	0.00	29.638 
04:40	52.3	52.3	52.3	93	50.3	0	2	315	0.00	29.638 
04:45	52.3	52.3	52.3	93	50.3	0	1	315	0.00	29.639 
04:50	52.2	52.2	52.2	93	50.2	0	1	315	0.00	29.639 
04:55	52.2	52.2	52.2	93	50.2	0	2	315	0.00	29.639 
05:00	52.0	52.0	52.0	93	50.0	0	1	315	0.00	29.640 
05:05	52.0	52.0	52.0	93	50.0	0	1	315	0.00	29.640 
05:10	52.0	52.0	52.0	94	50.3	0	2	315	0.00	29.640 
05:15	52.0	52.0	52.0	94	50.3	0	1	315	0.00	29.629 
05:20	52.0	52.0	52.0	94	50.3	0	2	315	0.00	29.629 
05:25	52.0	52.0	52.0	94	50.3	0	1	315	0.00	29.629 
05:30	51.9	51.9	51.9	94	50.2	0	1	315	0.00	29.628 
05:35	51.9	51.9	51.9	94	50.2	0	2	315	0.00	29.628 
05:40	51.9	51.9	51.9	94	50.2	0	1	315	0.00	29.628 
05:45	51.9	51.9	51.9	94	50.2	0	2	315	0.00	29.636 
05:50	51.9	51.9	51.9	94	50.2	0	1	315	0.00	29.636 
05:55	51.9	51.9	51.9	94	50.2	0	2	315	0.00	29.636 
06:00	51.9	51.9	51.9	95	50.5	0	2	315	0.00	29.627 
06:05	51.9	51.9	51.9	95	50.5	0	2	315	0.00	29.627 
06:10	51.9	51.9	51.9	95	50.5	0	2	315	0.00	29.627 
06:15	52.0	52.0	52.0	95	50.6	0	2	315	0.00	29.618 
06:20	52.0	52.0	52.0	95	50.6	0	2	315	0.00	29.618 
06:25	52.0	52.0	52.0	95	50.6	0	2	315	0.00	29.618 
06:30	52.0	52.0	52.0	95	50.6	0	1	315	0.00	29.617 
06:35	52.0	52.0	52.0	95	50.6	0	2	315	0.00	29.617 
06:40	52.0	52.0	52.0	95	50.6	0	2	315	0.00	29.617 
06:45	52.0	52.0	52.0	95	50.6	0	2	315	0.00	29.626 
06:50	52.0	52.0	52.0	95	50.6	0	2	315	0.00	29.626 
06:55	52.0	52.0	52.0	95	50.6	1	4	315	0.00	29.626 
07:00	52.0	52.0	52.0	95	50.6	0	2	315	0.00	29.631 
07:05	52.0	52.0	52.0	95	50.6	1	3	315	0.00	29.631 
07:10	52.0	52.0	52.0	95	50.6	0	1	315	0.00	29.631 
07:15	51.9	51.9	51.9	95	50.5	1	3	315	0.00	29.620 
07:20	51.9	51.9	51.9	95	50.5	0	2	315	0.00	29.620 
07:25	51.7	51.7	51.7	95	50.3	0	3	315	0.00	29.620 
07:30	51.7	51.7	51.7	95	50.3	0	1	315	0.00	29.617 
07:35	51.7	51.7	51.7	95	50.3	1	3	315	0.00	29.617 
07:40	51.7	51.7	51.7	95	50.3	0	2	315	0.00	29.617 
07:45	51.7	51.7	51.7	95	50.3	1	3	315	0.00	29.636 
07:50	51.7	51.7	51.7	95	50.3	1	2	315	0.00	29.636 
07:55	51.7	51.7	51.7	95	50.3	1	3	315	0.00	29.636 
08:00	51.6	51.6	51.6	95	50.2	1	2	315	0.00	29.636 
08:05	51.7	51.7	51.7	95	50.3	0	4	315	0.00	29.636 
08:10	51.7	51.7	51.7	96	50.6	1	4	315	0.01	29.636 
08:15	51.7	51.7	51.7	96	50.6	0	2	315	0.00	29.632 
08:20	51.7	51.7	51.7	96	50.6	0	2	315	0.00	29.632 
08:25	51.7	51.7	51.7	96	50.6	0	1	315	0.00	29.632 
08:30	51.6	51.6	51.6	95	50.2	0	3	315	0.00	29.625 
08:35	51.6	51.6	51.6	95	50.2	0	3	315	0.00	29.625 
08:40	51.6	51.6	51.6	95	50.2	1	2	315	0.00	29.625 
08:45	51.6	51.6	51.6	96	50.5	0	2	315	0.00	29.627 
08:50	51.6	51.6	51.6	96	50.5	1	3	315	0.00	29.627 
08:55	51.6	51.6	51.6	96	50.5	1	4	315	0.00	29.627 
09:00	51.6	51.6	51.6	96	50.5	1	2	315	0.00	29.622 
09:05	51.7	51.7	51.7	96	50.6	1	2	315	0.00	29.622 
09:10	51.7	51.7	51.7	96	50.6	0	2	315	0.00	29.622 
09:15	51.7	51.7	51.7	96	50.6	1	3	315	0.00	29.620 
09:20	51.7	51.7	51.7	96	50.6	2	5	315	0.00	29.620 
09:25	51.7	51.7	51.7	96	50.6	1	3	315	0.00	29.620 
09:30	51.6	51.6	51.6	96	50.5	1	4	315	0.00	29.633 
09:35	51.7	51.7	51.7	96	50.6	1	3	315	0.00	29.633 
09:40	51.6	51.6	51.6	96	50.5	2	4	315	0.00	29.633 
09:45	51.4	51.4	51.4	95	50.0	1	3	315	0.00	29.628 
09:50	51.4	51.4	51.4	96	50.3	1	3	315	0.00	29.628 
09:55	51.4	51.4	51.4	96	50.3	1	4	315	0.00	29.628 
10:00	51.4	51.4	51.4	96	50.3	1	3	315	0.00	29.636 
10:05	51.6	51.6	51.6	96	50.5	1	3	315	0.00	29.636 
10:10	51.6	51.6	51.6	96	50.5	1	3	315	0.00	29.636 
10:15	51.4	51.4	51.4	96	50.3	1	3	315	0.00	29.633 
10:20	51.3	51.3	51.3	95	49.9	2	4	315	0.00	29.633 
10:25	51.3	51.3	51.3	95	49.9	2	4	315	0.00	29.633 
10:30	51.4	51.4	51.4	95	50.0	1	3	315	0.00	29.630 
10:35	51.7	51.7	51.7	96	50.6	2	5	315	0.00	29.630 
10:40	52.0	52.0	52.0	96	50.9	1	2	315	0.00	29.630 
10:45	52.0	52.0	52.0	95	50.6	2	4	315	0.00	29.634 
10:50	51.9	51.9	51.9	95	50.5	3	5	315	0.00	29.634 
10:55	51.7	51.7	51.7	95	50.3	2	7	270	0.00	29.634 
11:00	51.7	51.7	51.7	95	50.3	2	5	270	0.00	29.636 
11:05	51.7	51.7	51.7	95	50.3	2	5	338	0.00	29.636 
11:10	51.7	51.7	51.7	95	50.3	1	3	292	0.00	29.636 
11:15	51.7	51.7	51.7	94	50.0	2	5	292	0.00	29.641 
11:20	51.7	51.7	51.7	94	50.0	1	3	292	0.00	29.641 
11:25	51.6	51.6	51.6	94	49.9	1	4	292	0.00	29.641 
11:30	51.4	51.4	51.4	94	49.7	1	4	292	0.00	29.641 
11:35	51.4	51.4	51.4	94	49.7	2	5	292	0.00	29.641 
11:40	51.4	51.4	51.4	94	49.7	2	5	292	0.00	29.641 
11:45	51.3	51.3	51.3	93	49.3	3	5	292	0.00	29.639 
11:50	51.3	51.3	51.3	93	49.3	2	5	292	0.00	29.639 
11:55	51.3	51.3	51.3	93	49.3	3	6	270	0.00	29.639 
12:00	51.3	51.3	51.3	93	49.3	3	7	292	0.00	29.636 
12:05	51.3	51.3	51.3	93	49.3	3	6	270	0.00	29.636 
12:10	51.3	51.3	51.3	92	49.1	4	9	270	0.00	29.636 
12:15	51.4	51.4	51.4	92	49.2	3	6	270	0.00	29.639 
12:20	51.6	51.6	51.6	92	49.4	2	5	270	0.00	29.639 
12:25	51.6	51.6	51.6	92	49.4	2	5	270	0.00	29.639 
12:30	51.7	51.7	51.7	92	49.5	2	4	270	0.00	29.639 
12:35	51.7	51.7	51.7	91	49.2	3	5	315	0.00	29.639 
12:40	51.7	51.7	51.7	91	49.2	3	6	270	0.00	29.639 
12:45	52.0	52.0	52.0	91	49.5	1	4	292	0.00	29.639 
12:50	52.3	52.3	52.3	91	49.8	2	5	248	0.00	29.639 
12:55	52.5	52.5	52.5	90	49.7	1	3	248	0.00	29.639 
13:00	52.8	52.8	52.8	89	49.6	2	5	270	0.00	29.640 
13:05	52.9	52.9	52.9	89	49.7	3	6	270	0.00	29.640 
13:10	53.1	53.1	53.1	88	49.6	3	5	270	0.00	29.640 
13:15	53.2	53.2	53.2	88	49.7	3	6	270	0.00	29.640 
13:20	53.3	53.3	53.3	88	49.8	3	5	292	0.00	29.640 
13:25	53.3	53.3	53.3	87	49.5	3	7	270	0.00	29.640 
13:30	53.2	53.2	53.2	87	49.4	3	6	270	0.00	29.641 
13:35	53.2	53.2	53.2	87	49.4	3	5	270	0.00	29.641 
13:40	53.3	53.3	53.3	87	49.5	3	6	270	0.00	29.641 
13:45	53.3	53.3	53.3	86	49.2	4	8	292	0.00	29.643 
13:50	53.3	53.3	53.3	86	49.2	4	7	270	0.00	29.643 
13:55	53.3	53.3	53.3	86	49.2	3	7	270	0.00	29.643 
14:00	53.3	53.3	53.3	85	48.9	4	10	270	0.00	29.648 
14:05	53.3	53.3	53.3	85	48.9	4	6	270	0.00	29.648 
14:10	53.5	53.5	53.5	85	49.1	3	6	292	0.00	29.648 
14:15	53.6	53.6	53.6	84	48.9	4	9	270	0.00	29.646 
14:20	53.6	53.6	53.6	84	48.9	4	9	270	0.00	29.646 
14:25	53.6	53.6	53.6	84	48.9	3	7	270	0.00	29.646 
14:30	53.8	53.8	53.8	84	49.1	3	10	270	0.00	29.651 
14:35	53.8	53.8	53.8	83	48.8	4	10	270	0.00	29.651 
14:40	53.9	53.9	53.9	83	48.9	3	6	270	0.00	29.651 
14:45	54.1	54.1	54.1	82	48.7	3	5	270	0.00	29.654 
14:50	54.1	54.1	54.1	82	48.7	2	7	270	0.00	29.654 
14:55	54.1	54.1	54.1	82	48.7	4	7	270	0.00	29.654 
15:00	54.1	54.1	54.1	82	48.7	2	5	315	0.00	29.656 
15:05	54.2	54.2	54.2	81	48.5	3	5	270	0.00	29.656 
15:10	53.9	53.9	53.9	81	48.2	4	9	270	0.00	29.656 
15:15	53.8	53.8	53.8	81	48.1	4	6	270	0.00	29.662 
15:20	53.8	53.8	53.8	82	48.4	3	5	292	0.00	29.662 
15:25	53.8	53.8	53.8	82	48.4	4	8	270	0.00	29.662 
15:30	53.8	53.8	53.8	82	48.4	3	7	270	0.00	29.667 
15:35	53.8	53.8	53.8	81	48.1	3	6	270	0.00	29.667 
15:40	53.8	53.8	53.8	82	48.4	3	7	270	0.00	29.667 
15:45	53.8	53.8	53.8	82	48.4	3	6	270	0.00	29.673 
15:50	53.8	53.8	53.8	82	48.4	3	7	270	0.00	29.673 
15:55	53.6	53.6	53.6	81	47.9	4	9	270	0.00	29.673 
16:00	53.6	53.6	53.6	81	47.9	4	7	270	0.00	29.676 
16:05	53.5	53.5	53.5	81	47.8	2	6	315	0.00	29.676 
16:10	53.5	53.5	53.5	82	48.1	3	7	270	0.00	29.676 
16:15	53.3	53.3	53.3	82	47.9	4	9	270	0.00	29.686 
16:20	53.5	53.5	53.5	82	48.1	3	7	270	0.00	29.686 
16:25	53.5	53.5	53.5	82	48.1	3	6	292	0.00	29.686 
16:30	53.5	53.5	53.5	82	48.1	2	5	270	0.00	29.685 
16:35	53.5	53.5	53.5	81	47.8	4	12	270	0.00	29.685 
16:40	53.5	53.5	53.5	81	47.8	3	6	270	0.00	29.685 
16:45	53.5	53.5	53.5	81	47.8	3	7	338	0.00	29.688 
16:50	53.5	53.5	53.5	81	47.8	4	10	270	0.00	29.688 
16:55	53.5	53.5	53.5	82	48.1	3	7	270	0.00	29.688 
17:00	53.5	53.5	53.5	82	48.1	4	7	292	0.00	29.695 
17:05	53.5	53.5	53.5	82	48.1	3	6	292	0.00	29.695 
17:10	53.5	53.5	53.5	82	48.1	3	7	292	0.00	29.695 
17:15	53.5	53.5	53.5	83	48.5	2	5	315	0.00	29.700 
17:20	53.5	53.5	53.5	83	48.5	3	6	270	0.00	29.700 
17:25	53.6	53.6	53.6	82	48.2	3	8	270	0.00	29.700 
17:30	53.8	53.8	53.8	81	48.1	4	7	270	0.00	29.703 
17:35	54.2	54.2	54.2	80	48.2	4	6	292	0.00	29.703 
17:40	54.2	54.2	54.2	80	48.2	4	10	270	0.00	29.703 
17:45	54.2	54.2	54.2	80	48.2	3	7	270	0.00	29.713 
17:50	54.2	54.2	54.2	79	47.8	4	9	315	0.00	29.713 
17:55	54.4	54.4	54.4	79	48.0	4	9	270	0.00	29.713 
18:00	54.7	54.7	54.7	77	47.6	4	12	270	0.00	29.716 
18:05	54.8	54.8	54.8	78	48.1	2	7	315	0.00	29.716 
18:10	55.0	55.0	55.0	77	47.9	1	3	315	0.00	29.716 
18:15	55.1	55.1	55.1	77	48.0	2	8	270	0.00	29.714 
18:20	55.1	55.1	55.1	77	48.0	2	6	270	0.00	29.714 
18:25	55.1	55.1	55.1	76	47.7	2	5	270	0.00	29.714 
18:30	55.1	55.1	55.1	75	47.3	2	6	270	0.00	29.716 
18:35	55.1	55.1	55.1	76	47.7	2	4	270	0.00	29.716 
18:40	55.0	55.0	55.0	76	47.6	3	6	270	0.00	29.716 
18:45	55.0	55.0	55.0	76	47.6	3	7	270	0.00	29.717 
18:50	54.8	54.8	54.8	76	47.4	2	5	315	0.00	29.717 
18:55	55.0	55.0	55.0	77	47.9	3	7	270	0.00	29.717 
19:00	55.0	55.0	55.0	76	47.6	4	7	270	0.00	29.721 
19:05	55.1	55.1	55.1	75	47.3	3	5	270	0.00	29.721 
19:10	55.0	55.0	55.0	74	46.9	3	6	270	0.00	29.721 
19:15	55.0	55.0	55.0	73	46.5	4	9	270	0.00	29.729 
19:20	54.8	54.8	54.8	74	46.7	3	5	270	0.00	29.729 
19:25	54.8	54.8	54.8	75	47.0	3	6	292	0.00	29.729 
19:30	54.7	54.7	54.7	75	46.9	3	6	270	0.00	29.733 
19:35	54.5	54.5	54.5	76	47.1	3	7	270	0.00	29.733 
19:40	54.4	54.4	54.4	77	47.3	2	6	270	0.00	29.733 
19:45	54.1	54.1	54.1	77	47.0	3	7	270	0.00	29.738 
19:50	53.8	53.8	53.8	78	47.1	4	7	270	0.00	29.738 
19:55	53.5	53.5	53.5	78	46.8	4	9	270	0.00	29.738 
20:00	53.3	53.3	53.3	79	47.0	4	11	270	0.00	29.749 
20:05	53.3	53.3	53.3	79	47.0	4	9	270	0.00	29.749 
20:10	53.3	53.3	53.3	80	47.3	3	9	270	0.00	29.749 
20:15	52.8	52.8	52.8	83	47.8	4	7	270	0.00	29.749 
20:20	52.3	52.3	52.3	84	47.6	3	5	270	0.00	29.749 
20:25	52.2	52.2	52.2	85	47.8	3	6	270	0.00	29.749 
20:30	52.0	52.0	52.0	85	47.6	3	6	270	0.00	29.748 
20:35	52.0	52.0	52.0	85	47.6	3	5	270	0.00	29.748 
20:40	52.0	52.0	52.0	84	47.3	2	6	270	0.00	29.748 
20:45	51.9	51.9	51.9	84	47.2	2	5	292	0.00	29.750 
20:50	51.7	51.7	51.7	84	47.0	3	5	270	0.00	29.750 
20:55	51.7	51.7	51.7	83	46.7	2	5	270	0.00	29.750 
21:00	51.6	51.6	51.6	83	46.6	2	7	270	0.00	29.751 
21:05	51.4	51.4	51.4	82	46.1	3	5	292	0.00	29.751 
21:10	51.3	51.3	51.3	81	45.7	2	5	270	0.00	29.751 
21:15	51.3	51.3	51.3	81	45.7	2	5	270	0.00	29.754 
21:20	51.1	51.1	51.1	80	45.1	2	5	270	0.00	29.754 
21:25	51.1	51.1	51.1	80	45.1	1	3	270	0.00	29.754 
21:30	51.0	51.0	51.0	80	45.0	1	3	270	0.00	29.752 
21:35	51.0	51.0	51.0	79	44.7	2	6	270	0.00	29.752 
21:40	50.8	50.8	50.8	79	44.5	2	4	270	0.00	29.752 
21:45	50.8	50.8	50.8	79	44.5	1	3	270	0.00	29.752 
21:50	50.8	50.8	50.8	79	44.5	2	4	270	0.00	29.752 
21:55	50.7	50.7	50.7	79	44.4	1	3	270	0.00	29.752 
22:00	50.7	50.7	50.7	79	44.4	0	1	270	0.00	29.756 
22:05	50.5	50.5	50.5	79	44.2	1	3	270	0.00	29.756 
22:10	50.4	50.4	50.4	80	44.5	0	2	270	0.00	29.756 
22:15	50.4	50.4	50.4	80	44.5	0	2	270	0.00	29.760 
22:20	50.2	50.2	50.2	80	44.3	0	2	270	0.00	29.760 
22:25	50.1	50.1	50.1	80	44.2	1	3	270	0.00	29.760 
22:30	50.1	50.1	50.1	80	44.2	1	2	270	0.00	29.763 
22:35	50.1	50.1	50.1	79	43.8	1	3	270	0.00	29.763 
22:40	50.1	50.1	50.1	79	43.8	1	3	270	0.00	29.763 
22:45	50.1	50.1	50.1	79	43.8	1	4	270	0.00	29.766 
22:50	50.1	50.1	50.1	78	43.5	1	4	270	0.00	29.766 
22:55	50.1	50.1	50.1	78	43.5	1	3	270	0.00	29.766 
23:00	50.1	50.1	50.1	78	43.5	1	3	270	0.00	29.767 
23:05	50.1	50.1	50.1	78	43.5	1	4	270	0.00	29.767 
23:10	50.1	50.1	50.1	78	43.5	1	3	270	0.00	29.767 
23:15	50.1	50.1	50.1	78	43.5	1	3	270	0.00	29.769 
23:20	50.1	50.1	50.1	78	43.5	1	5	270	0.00	29.769 
23:25	49.9	49.9	49.9	78	43.3	1	3	270	0.00	29.769 
23:30	49.8	49.8	49.8	78	43.2	1	3	270	0.00	29.769 
23:35	49.8	49.8	49.8	78	43.2	1	4	270	0.00	29.769 
23:40	49.8	49.8	49.8	77	42.9	2	6	292	0.00	29.769 
23:45	49.8	49.8	49.8	77	42.9	2	4	292	0.00	29.769 
23:50	49.8	49.8	49.8	77	42.9	1	3	292	0.00	29.769 
23:55	49.8	49.8	49.8	77	42.9	2	5	292	0.00	29.769 

CoCoRaHS
IN-AL-39
A2 Web Hosting
Creative Commons License
GoDaddy
search engine by freefind advanced

loaded 2018-11-17 11:57:24 • last modified 2010-11-18 10:43:29
Privacy PolicyDisclaimer
• wx.awcolley.com is powered by PmWiki v.2002016 •
• all content (unless otherwise noted) © 2018 A W Colley